createdAt,value
2022-12-03T00:02:19.775Z,3.60
2022-12-03T00:04:46.573Z,3.60
2022-12-03T00:07:13.304Z,3.60
2022-12-03T00:09:40.044Z,3.50
2022-12-03T00:12:06.826Z,3.40
2022-12-03T00:14:33.617Z,3.50
2022-12-03T00:17:00.329Z,3.50
2022-12-03T00:19:27.065Z,3.60
2022-12-03T00:21:53.777Z,3.60
2022-12-03T00:24:20.476Z,3.50
2022-12-03T00:26:47.190Z,3.50
2022-12-03T00:29:14.256Z,3.50
2022-12-03T00:31:42.185Z,3.50
2022-12-03T00:34:09.027Z,3.30
2022-12-03T00:36:35.755Z,3.20
2022-12-03T00:39:02.508Z,3.20
2022-12-03T00:41:29.254Z,3.20
2022-12-03T00:43:57.719Z,3.20
2022-12-03T00:46:25.394Z,3.30
2022-12-03T00:48:52.274Z,3.20
2022-12-03T00:51:19.250Z,2.90
2022-12-03T00:53:46.022Z,3.00
2022-12-03T00:56:12.702Z,3.00
2022-12-03T00:58:39.471Z,3.00
2022-12-03T01:01:06.504Z,2.90
2022-12-03T01:03:33.289Z,2.80
2022-12-03T01:05:59.985Z,3.00
2022-12-03T01:08:26.725Z,2.80
2022-12-03T01:10:53.424Z,2.70
2022-12-03T01:13:20.233Z,2.50
2022-12-03T01:15:47.677Z,2.50
2022-12-03T01:18:14.871Z,2.40
2022-12-03T01:20:41.709Z,2.40
2022-12-03T01:23:08.519Z,2.50
2022-12-03T01:25:35.290Z,2.40
2022-12-03T01:28:02.049Z,2.30
2022-12-03T01:30:28.772Z,2.30
2022-12-03T01:32:55.561Z,2.30
2022-12-03T01:35:22.310Z,2.20
2022-12-03T01:37:49.059Z,2.20
2022-12-03T01:40:19.940Z,2.20
2022-12-03T01:42:46.858Z,2.20
2022-12-03T01:45:23.947Z,2.20
2022-12-03T01:47:51.013Z,2.20
2022-12-03T01:50:30.204Z,2.20
2022-12-03T01:53:00.620Z,2.20
2022-12-03T01:55:27.566Z,2.30
2022-12-03T01:57:59.625Z,2.30
2022-12-03T02:00:28.315Z,2.30
2022-12-03T02:03:01.481Z,2.20
2022-12-03T02:05:31.557Z,2.20
2022-12-03T02:07:59.233Z,2.20
2022-12-03T02:10:37.512Z,2.20
2022-12-03T02:13:08.945Z,2.30
2022-12-03T02:15:38.951Z,2.40
2022-12-03T02:18:07.237Z,2.50
2022-12-03T02:20:45.057Z,2.50
2022-12-03T02:23:20.418Z,2.50
2022-12-03T02:25:47.404Z,2.50
2022-12-03T02:28:14.289Z,2.40
2022-12-03T02:30:41.066Z,2.40
2022-12-03T02:33:07.851Z,2.30
2022-12-03T02:35:37.060Z,2.30
2022-12-03T02:38:12.023Z,2.40
2022-12-03T02:40:39.289Z,2.40
2022-12-03T02:43:06.484Z,2.40
2022-12-03T02:45:45.229Z,2.40
2022-12-03T02:48:28.596Z,2.50
2022-12-03T02:50:59.316Z,2.40
2022-12-03T02:53:36.365Z,2.30
2022-12-03T02:56:04.513Z,2.30
2022-12-03T02:58:33.837Z,2.20
2022-12-03T03:01:02.842Z,2.20
2022-12-03T03:03:31.921Z,2.20
2022-12-03T03:06:01.334Z,2.20
2022-12-03T03:08:28.829Z,2.20
2022-12-03T03:10:57.362Z,2.30
2022-12-03T03:13:24.325Z,2.30
2022-12-03T03:15:54.652Z,2.40
2022-12-03T03:18:21.577Z,2.30
2022-12-03T03:20:48.360Z,2.30
2022-12-03T03:23:19.195Z,2.20
2022-12-03T03:25:51.611Z,2.30
2022-12-03T03:28:18.977Z,2.20
2022-12-03T03:30:46.577Z,2.20
2022-12-03T03:33:15.105Z,2.30
2022-12-03T03:35:43.570Z,2.30
2022-12-03T03:38:10.884Z,2.30
2022-12-03T03:40:38.421Z,2.30
2022-12-03T03:43:06.323Z,2.40
2022-12-03T03:45:33.457Z,2.40
2022-12-03T03:48:01.340Z,2.30
2022-12-03T03:50:29.978Z,2.30
2022-12-03T03:52:58.052Z,2.20
2022-12-03T03:55:25.220Z,2.10
2022-12-03T03:57:52.024Z,2.10
2022-12-03T04:00:19.106Z,2.20
2022-12-03T04:02:46.272Z,2.20
2022-12-03T04:05:19.860Z,2.30
2022-12-03T04:07:46.799Z,2.40
2022-12-03T04:10:33.586Z,2.30
2022-12-03T04:13:01.127Z,2.50
2022-12-03T04:15:28.318Z,2.40
2022-12-03T04:18:14.267Z,2.40
2022-12-03T04:20:41.100Z,2.20
2022-12-03T04:23:08.621Z,2.30
2022-12-03T04:25:53.963Z,2.30
2022-12-03T04:28:39.428Z,2.30
2022-12-03T04:31:25.475Z,2.40
2022-12-03T04:34:11.772Z,2.40
2022-12-03T04:36:38.751Z,2.30
2022-12-03T04:39:05.518Z,2.30
2022-12-03T04:41:32.279Z,2.20
2022-12-03T04:44:17.508Z,2.10
2022-12-03T04:46:44.299Z,2.10
2022-12-03T04:49:11.007Z,2.10
2022-12-03T04:51:37.940Z,2.00
2022-12-03T04:54:04.746Z,2.00
2022-12-03T04:56:31.463Z,2.00
2022-12-03T04:58:58.358Z,1.90
2022-12-03T05:01:25.179Z,2.00
2022-12-03T05:03:52.057Z,2.10
2022-12-03T05:06:18.764Z,2.10
2022-12-03T05:08:45.531Z,2.00
2022-12-03T05:11:12.274Z,1.90
2022-12-03T05:13:39.010Z,1.80
2022-12-03T05:16:06.214Z,1.80
2022-12-03T05:18:33.054Z,1.80
2022-12-03T05:20:59.879Z,1.80
2022-12-03T05:23:26.638Z,1.70
2022-12-03T05:25:53.581Z,1.70
2022-12-03T05:28:22.230Z,1.80
2022-12-03T05:30:49.129Z,1.70
2022-12-03T05:33:16.064Z,1.70
2022-12-03T05:35:42.856Z,1.70
2022-12-03T05:38:09.632Z,1.70
2022-12-03T05:40:36.399Z,1.80
2022-12-03T05:43:03.941Z,1.70
2022-12-03T05:45:32.203Z,1.70
2022-12-03T05:48:00.105Z,1.60
2022-12-03T05:50:29.433Z,1.50
2022-12-03T05:52:56.674Z,1.50
2022-12-03T05:55:24.029Z,1.50
2022-12-03T05:57:50.876Z,1.40
2022-12-03T06:00:23.870Z,1.30
2022-12-03T06:02:51.350Z,1.10
2022-12-03T06:05:21.623Z,1.00
2022-12-03T06:07:50.304Z,1.00
2022-12-03T06:10:20.711Z,1.10
2022-12-03T06:12:47.500Z,1.10
2022-12-03T06:15:15.147Z,1.20
2022-12-03T06:17:41.912Z,1.00
2022-12-03T06:20:13.551Z,1.00
2022-12-03T06:22:40.356Z,1.00
2022-12-03T06:25:08.030Z,1.00
2022-12-03T06:27:34.942Z,1.00
2022-12-03T06:30:02.363Z,1.00
2022-12-03T06:32:29.152Z,1.00
2022-12-03T06:34:56.179Z,1.00
2022-12-03T06:37:23.078Z,1.00
2022-12-03T06:39:49.898Z,0.90
2022-12-03T06:42:16.651Z,0.90
2022-12-03T06:44:43.470Z,0.90
2022-12-03T06:47:10.240Z,1.00
2022-12-03T06:49:36.995Z,0.90
2022-12-03T06:52:03.993Z,1.00
2022-12-03T06:54:30.869Z,1.00
2022-12-03T06:56:57.584Z,1.10
2022-12-03T06:59:24.429Z,1.20
2022-12-03T07:01:51.373Z,1.20
2022-12-03T07:04:18.192Z,1.40
2022-12-03T07:06:44.894Z,1.40
2022-12-03T07:09:11.740Z,1.40
2022-12-03T07:11:41.536Z,1.50
2022-12-03T07:14:11.269Z,1.50
2022-12-03T07:16:38.718Z,1.60
2022-12-03T07:19:06.944Z,1.60
2022-12-03T07:21:33.783Z,1.50
2022-12-03T07:24:00.617Z,1.60
2022-12-03T07:26:27.511Z,1.60
2022-12-03T07:28:54.400Z,1.60
2022-12-03T07:31:21.164Z,1.60
2022-12-03T07:33:47.966Z,1.60
2022-12-03T07:36:14.859Z,1.50
2022-12-03T07:38:41.621Z,1.40
2022-12-03T07:41:08.391Z,1.50
2022-12-03T07:43:35.110Z,1.30
2022-12-03T07:46:01.931Z,1.30
2022-12-03T07:48:28.699Z,1.20
2022-12-03T07:50:55.460Z,1.30
2022-12-03T07:53:22.333Z,1.40
2022-12-03T07:55:49.163Z,1.30
2022-12-03T07:58:15.895Z,1.50
2022-12-03T08:00:42.756Z,1.40
2022-12-03T08:03:09.520Z,1.30
2022-12-03T08:05:36.302Z,1.30
2022-12-03T08:08:03.162Z,1.40
2022-12-03T08:10:30.039Z,1.50
2022-12-03T08:13:02.037Z,1.40
2022-12-03T08:15:33.853Z,1.50
2022-12-03T08:18:16.505Z,1.50
2022-12-03T08:20:45.737Z,1.50
2022-12-03T08:23:30.657Z,1.50
2022-12-03T08:26:02.206Z,1.50
2022-12-03T08:28:29.061Z,1.50
2022-12-03T08:31:12.602Z,1.70
2022-12-03T08:33:40.592Z,1.80
2022-12-03T08:36:25.870Z,1.60
2022-12-03T08:38:56.250Z,1.40
2022-12-03T08:41:42.306Z,1.50
2022-12-03T08:44:34.965Z,1.30
2022-12-03T08:47:19.736Z,1.20
2022-12-03T08:49:55.211Z,1.30
2022-12-03T08:52:26.601Z,1.30
2022-12-03T08:54:55.697Z,1.30
2022-12-03T08:57:25.415Z,1.40
2022-12-03T08:59:58.026Z,1.50
2022-12-03T09:02:34.475Z,1.50
2022-12-03T09:05:16.887Z,1.40
2022-12-03T09:07:43.693Z,1.30
2022-12-03T09:10:10.644Z,1.30
2022-12-03T09:12:37.409Z,1.30
2022-12-03T09:15:04.405Z,1.30
2022-12-03T09:17:31.095Z,1.30
2022-12-03T09:19:57.874Z,1.30
2022-12-03T09:22:24.581Z,1.30
2022-12-03T09:24:51.426Z,1.30
2022-12-03T09:27:18.282Z,1.40
2022-12-03T09:29:45.158Z,1.30
2022-12-03T09:32:17.900Z,1.40
2022-12-03T09:34:45.152Z,1.50
2022-12-03T09:37:11.836Z,1.50
2022-12-03T09:39:38.650Z,1.60
2022-12-03T09:42:05.629Z,1.60
2022-12-03T09:44:34.498Z,1.50
2022-12-03T09:47:03.117Z,1.60
2022-12-03T09:49:32.782Z,1.50
2022-12-03T09:52:02.557Z,1.60
2022-12-03T09:54:31.154Z,1.50
2022-12-03T09:57:00.430Z,1.60
2022-12-03T09:59:33.267Z,1.70
2022-12-03T10:02:01.623Z,1.70
2022-12-03T10:04:29.846Z,1.90
2022-12-03T10:06:58.315Z,1.90
2022-12-03T10:09:28.442Z,2.00
2022-12-03T10:11:57.452Z,2.00
2022-12-03T10:14:24.578Z,2.00
2022-12-03T10:16:51.601Z,2.10
2022-12-03T10:19:23.995Z,2.10
2022-12-03T10:21:50.831Z,2.00
2022-12-03T10:24:26.462Z,2.00
2022-12-03T10:26:55.923Z,2.00
2022-12-03T10:29:28.351Z,2.00
2022-12-03T10:32:09.189Z,2.20
2022-12-03T10:34:37.712Z,2.20
2022-12-03T10:37:22.972Z,2.30
2022-12-03T10:40:08.512Z,2.40
2022-12-03T10:42:40.910Z,2.30
2022-12-03T10:45:22.670Z,2.30
2022-12-03T10:48:20.669Z,2.30
2022-12-03T10:50:53.319Z,2.40
2022-12-03T10:53:22.015Z,2.20
2022-12-03T10:55:51.403Z,2.10
2022-12-03T10:58:26.481Z,2.00
2022-12-03T11:00:55.463Z,1.90
2022-12-03T11:03:27.675Z,1.90
2022-12-03T11:05:55.831Z,1.80
2022-12-03T11:08:25.534Z,1.80
2022-12-03T11:11:19.981Z,1.80
2022-12-03T11:14:01.349Z,1.90
2022-12-03T11:16:40.003Z,1.90
2022-12-03T11:19:12.569Z,2.10
2022-12-03T11:22:06.923Z,2.10
2022-12-03T11:24:38.899Z,1.90
2022-12-03T11:27:07.053Z,1.90
2022-12-03T11:29:50.779Z,1.90
2022-12-03T11:32:59.467Z,1.80
2022-12-03T11:35:36.788Z,1.80
2022-12-03T11:38:38.123Z,1.90
2022-12-03T11:41:29.296Z,2.00
2022-12-03T11:43:58.805Z,2.20
2022-12-03T11:46:30.486Z,2.20
2022-12-03T11:48:59.849Z,2.10
2022-12-03T11:51:29.162Z,2.10
2022-12-03T11:53:58.862Z,2.00
2022-12-03T11:56:30.313Z,1.90
2022-12-03T11:59:02.547Z,2.00
2022-12-03T12:01:39.098Z,2.10
2022-12-03T12:04:07.615Z,2.20
2022-12-03T12:06:48.693Z,2.30
2022-12-03T12:09:51.853Z,2.30
2022-12-03T12:12:30.492Z,2.40
2022-12-03T12:15:00.667Z,2.50
2022-12-03T12:17:35.833Z,2.20
2022-12-03T12:20:37.926Z,2.20
2022-12-03T12:23:23.148Z,2.10
2022-12-03T12:25:54.168Z,2.10
2022-12-03T12:28:22.625Z,2.00
2022-12-03T12:30:49.314Z,1.90
2022-12-03T12:33:19.844Z,2.00
2022-12-03T12:35:46.831Z,2.10
2022-12-03T12:38:19.456Z,2.00
2022-12-03T12:40:49.398Z,1.80
2022-12-03T12:43:25.283Z,1.80
2022-12-03T12:45:56.851Z,1.90
2022-12-03T12:48:28.195Z,1.90
2022-12-03T12:51:11.482Z,1.80
2022-12-03T12:53:40.453Z,1.80
2022-12-03T12:56:31.880Z,1.60
2022-12-03T12:59:22.876Z,1.60
2022-12-03T13:01:51.694Z,1.50
2022-12-03T13:04:23.936Z,1.50
2022-12-03T13:06:53.696Z,1.50
2022-12-03T13:09:23.372Z,1.60
2022-12-03T13:12:03.830Z,1.60
2022-12-03T13:14:32.914Z,1.70
2022-12-03T13:17:01.937Z,1.80
2022-12-03T13:19:30.892Z,1.80
2022-12-03T13:22:02.898Z,1.90
2022-12-03T13:24:40.605Z,1.90
2022-12-03T13:27:19.694Z,1.80
2022-12-03T13:29:53.361Z,1.80
2022-12-03T13:32:23.167Z,1.90
2022-12-03T13:34:55.353Z,1.90
2022-12-03T13:37:40.035Z,1.90
2022-12-03T13:40:27.699Z,1.90
2022-12-03T13:42:55.119Z,2.00
2022-12-03T13:45:24.710Z,2.00
2022-12-03T13:47:57.462Z,1.90
2022-12-03T13:50:37.318Z,1.80
2022-12-03T13:53:16.181Z,1.90
2022-12-03T13:55:48.504Z,1.80
2022-12-03T13:58:15.320Z,1.70
2022-12-03T14:00:42.132Z,1.70
2022-12-03T14:03:09.026Z,1.60
2022-12-03T14:05:35.824Z,1.70
2022-12-03T14:08:02.693Z,1.60
2022-12-03T14:10:30.387Z,1.50
2022-12-03T14:12:57.332Z,1.50
2022-12-03T14:15:26.360Z,1.50
2022-12-03T14:17:53.181Z,1.50
2022-12-03T14:20:20.690Z,1.60
2022-12-03T14:22:47.478Z,1.50
2022-12-03T14:25:14.328Z,1.60
2022-12-03T14:27:41.236Z,1.40
2022-12-03T14:30:08.987Z,1.50
2022-12-03T14:32:35.729Z,1.50
2022-12-03T14:35:08.187Z,1.60
2022-12-03T14:37:36.608Z,1.50
2022-12-03T14:40:03.929Z,1.30
2022-12-03T14:42:30.881Z,1.30
2022-12-03T14:44:57.679Z,1.20
2022-12-03T14:47:24.450Z,1.30
2022-12-03T14:49:52.289Z,1.30
2022-12-03T14:52:19.586Z,1.20
2022-12-03T14:54:46.554Z,1.30
2022-12-03T14:57:16.923Z,1.20
2022-12-03T14:59:44.716Z,1.10
2022-12-03T15:02:12.106Z,1.20
2022-12-03T15:04:40.413Z,1.20
2022-12-03T15:07:07.567Z,1.20
2022-12-03T15:09:34.624Z,1.30
2022-12-03T15:12:01.425Z,1.40
2022-12-03T15:14:28.205Z,1.40
2022-12-03T15:17:00.283Z,1.40
2022-12-03T15:19:27.077Z,1.50
2022-12-03T15:21:53.928Z,1.50
2022-12-03T15:24:36.502Z,1.50
2022-12-03T15:27:03.349Z,1.40
2022-12-03T15:29:30.420Z,1.40
2022-12-03T15:31:59.358Z,1.40
2022-12-03T15:34:29.427Z,1.30
2022-12-03T15:36:56.417Z,1.30
2022-12-03T15:39:23.265Z,1.30
2022-12-03T15:41:50.032Z,1.30
2022-12-03T15:44:16.828Z,1.20
2022-12-03T15:46:43.705Z,1.10
2022-12-03T15:49:10.579Z,1.10
2022-12-03T15:51:37.260Z,1.10
2022-12-03T15:54:04.125Z,1.20
2022-12-03T15:56:30.826Z,1.30
2022-12-03T15:58:57.575Z,1.30
2022-12-03T16:01:24.590Z,1.30
2022-12-03T16:03:51.434Z,1.20
2022-12-03T16:06:19.614Z,1.30
2022-12-03T16:08:46.439Z,1.40
2022-12-03T16:11:13.163Z,1.40
2022-12-03T16:13:39.918Z,1.40
2022-12-03T16:16:06.851Z,1.50
2022-12-03T16:18:33.653Z,1.50
2022-12-03T16:21:00.411Z,1.30
2022-12-03T16:23:27.228Z,1.30
2022-12-03T16:25:54.009Z,1.30
2022-12-03T16:28:20.781Z,1.30
2022-12-03T16:30:47.623Z,1.40
2022-12-03T16:33:14.468Z,1.40
2022-12-03T16:35:41.375Z,1.50
2022-12-03T16:38:08.162Z,1.40
2022-12-03T16:40:34.894Z,1.30
2022-12-03T16:43:03.351Z,1.40
2022-12-03T16:45:40.740Z,1.40
2022-12-03T16:48:07.447Z,1.40
2022-12-03T16:50:37.203Z,1.40
2022-12-03T16:53:04.127Z,1.30
2022-12-03T16:55:30.978Z,1.30
2022-12-03T16:57:57.762Z,1.30
2022-12-03T17:00:26.001Z,1.30
2022-12-03T17:02:52.861Z,1.40
2022-12-03T17:05:19.874Z,1.20
2022-12-03T17:07:46.641Z,1.20
2022-12-03T17:10:13.606Z,1.10
2022-12-03T17:13:07.736Z,1.20
2022-12-03T17:15:27.508Z,1.30
2022-12-03T17:17:54.254Z,1.30
2022-12-03T17:20:21.006Z,1.30
2022-12-03T17:22:47.835Z,1.30
2022-12-03T17:25:14.722Z,1.40
2022-12-03T17:27:45.201Z,1.40
2022-12-03T17:30:12.940Z,1.30
2022-12-03T17:32:39.768Z,1.20
2022-12-03T17:35:07.394Z,1.30
2022-12-03T17:37:34.186Z,1.20
2022-12-03T17:40:01.508Z,1.20
2022-12-03T17:42:28.379Z,1.30
2022-12-03T17:44:55.130Z,1.30
2022-12-03T17:47:21.860Z,1.30
2022-12-03T17:49:48.618Z,1.30
2022-12-03T17:52:15.330Z,1.30
2022-12-03T17:55:09.276Z,1.10
2022-12-03T17:57:29.884Z,1.10
2022-12-03T17:59:57.010Z,1.10
2022-12-03T18:02:24.066Z,1.10
2022-12-03T18:04:50.832Z,1.20
2022-12-03T18:07:17.680Z,1.30
2022-12-03T18:09:44.427Z,1.30
2022-12-03T18:12:11.188Z,1.30
2022-12-03T18:14:40.792Z,1.30
2022-12-03T18:17:07.545Z,1.10
2022-12-03T18:19:34.408Z,1.10
2022-12-03T18:22:01.164Z,1.10
2022-12-03T18:24:27.989Z,1.20
2022-12-03T18:26:54.764Z,1.20
2022-12-03T18:29:21.516Z,1.10
2022-12-03T18:31:48.331Z,1.10
2022-12-03T18:34:15.414Z,1.10
2022-12-03T18:36:42.477Z,1.00
2022-12-03T18:39:20.968Z,1.00
2022-12-03T18:41:47.694Z,1.10
2022-12-03T18:44:14.451Z,1.10
2022-12-03T18:46:56.895Z,1.10
2022-12-03T18:49:23.738Z,1.20
2022-12-03T18:51:54.449Z,1.20
2022-12-03T18:54:25.580Z,1.10
2022-12-03T18:56:52.329Z,1.00
2022-12-03T18:59:19.169Z,0.90
2022-12-03T19:01:46.040Z,1.00
2022-12-03T19:04:12.855Z,0.90
2022-12-03T19:06:39.647Z,0.90
2022-12-03T19:09:06.857Z,0.90
2022-12-03T19:11:34.120Z,0.90
2022-12-03T19:14:03.090Z,0.90
2022-12-03T19:16:30.344Z,1.00
2022-12-03T19:18:57.628Z,1.10
2022-12-03T19:21:25.706Z,1.00
2022-12-03T19:24:22.829Z,0.90
2022-12-03T19:26:42.067Z,0.90
2022-12-03T19:29:10.878Z,0.90
2022-12-03T19:31:38.125Z,0.80
2022-12-03T19:34:04.984Z,0.70
2022-12-03T19:36:32.418Z,0.70
2022-12-03T19:38:59.937Z,0.70
2022-12-03T19:41:28.108Z,0.70
2022-12-03T19:43:56.114Z,0.80
2022-12-03T19:46:28.693Z,0.80
2022-12-03T19:48:55.622Z,0.90
2022-12-03T19:51:38.012Z,0.90
2022-12-03T19:54:06.685Z,0.90
2022-12-03T19:56:34.678Z,1.00
2022-12-03T19:59:01.863Z,1.10
2022-12-03T20:01:32.486Z,1.00
2022-12-03T20:04:02.745Z,1.00
2022-12-03T20:06:33.325Z,1.10
2022-12-03T20:09:02.223Z,1.10
2022-12-03T20:11:31.594Z,1.00
2022-12-03T20:14:00.318Z,0.90
2022-12-03T20:16:28.194Z,1.00
2022-12-03T20:19:04.600Z,1.00
2022-12-03T20:21:33.720Z,0.90
2022-12-03T20:24:01.046Z,0.70
2022-12-03T20:26:28.844Z,0.80
2022-12-03T20:28:56.390Z,1.00
2022-12-03T20:31:28.031Z,1.00
2022-12-03T20:33:58.106Z,1.00
2022-12-03T20:36:25.894Z,1.00
2022-12-03T20:38:58.273Z,1.10
2022-12-03T20:41:26.333Z,1.00
2022-12-03T20:43:54.160Z,1.10
2022-12-03T20:46:26.230Z,1.10
2022-12-03T20:48:54.264Z,1.10
2022-12-03T20:51:23.673Z,1.20
2022-12-03T20:53:51.012Z,1.20
2022-12-03T20:56:29.322Z,1.10
2022-12-03T20:58:56.209Z,1.10
2022-12-03T21:01:26.458Z,1.10
2022-12-03T21:03:56.289Z,0.90
2022-12-03T21:06:25.363Z,0.80
2022-12-03T21:08:56.713Z,0.80
2022-12-03T21:11:26.571Z,0.80
2022-12-03T21:13:54.714Z,0.80
2022-12-03T21:16:59.072Z,0.80
2022-12-03T21:19:18.161Z,0.80
2022-12-03T21:21:44.990Z,0.80
2022-12-03T21:24:13.494Z,0.80
2022-12-03T21:26:40.991Z,0.90
2022-12-03T21:29:07.863Z,1.00
2022-12-03T21:31:35.661Z,1.00
2022-12-03T21:34:02.913Z,1.00
2022-12-03T21:36:29.721Z,1.10
2022-12-03T21:38:56.654Z,1.10
2022-12-03T21:41:23.437Z,1.20
2022-12-03T21:43:51.054Z,1.30
2022-12-03T21:47:11.391Z,1.40
2022-12-03T21:49:04.788Z,1.30
2022-12-03T21:51:31.588Z,1.20
2022-12-03T21:53:58.337Z,1.20
2022-12-03T21:56:25.234Z,1.20
2022-12-03T21:58:53.024Z,1.10
2022-12-03T22:01:22.368Z,1.20
2022-12-03T22:03:49.944Z,1.10
2022-12-03T22:06:17.574Z,1.20
2022-12-03T22:08:44.777Z,1.10
2022-12-03T22:11:14.531Z,1.10
2022-12-03T22:13:42.238Z,1.10
2022-12-03T22:16:12.563Z,1.20
2022-12-03T22:18:39.943Z,1.20
2022-12-03T22:21:09.353Z,1.30
2022-12-03T22:23:36.764Z,1.30
2022-12-03T22:26:06.105Z,1.30
2022-12-03T22:28:33.628Z,1.30
2022-12-03T22:31:05.673Z,1.30
2022-12-03T22:33:32.511Z,1.30
2022-12-03T22:36:01.699Z,1.20
2022-12-03T22:38:30.209Z,1.30
2022-12-03T22:40:57.242Z,1.10
2022-12-03T22:43:24.208Z,1.10
2022-12-03T22:45:55.445Z,1.10
2022-12-03T22:48:23.579Z,1.10
2022-12-03T22:50:51.813Z,1.10
2022-12-03T22:53:18.929Z,1.20
2022-12-03T22:55:57.829Z,1.10
2022-12-03T22:58:25.534Z,1.20
2022-12-03T23:00:52.822Z,1.10
2022-12-03T23:03:20.146Z,1.10
2022-12-03T23:05:47.861Z,1.30
2022-12-03T23:08:19.108Z,1.40
2022-12-03T23:10:48.266Z,1.30
2022-12-03T23:13:16.169Z,1.30
2022-12-03T23:15:47.937Z,1.30
2022-12-03T23:18:15.262Z,1.30
2022-12-03T23:20:46.992Z,1.40
2022-12-03T23:23:14.006Z,1.30
2022-12-03T23:25:41.271Z,1.20
2022-12-03T23:28:09.052Z,1.10
2022-12-03T23:30:39.549Z,1.20
2022-12-03T23:33:06.855Z,1.30
2022-12-03T23:35:34.123Z,1.40
2022-12-03T23:38:01.128Z,1.40
2022-12-03T23:40:28.090Z,1.40
2022-12-03T23:42:55.077Z,1.50
2022-12-03T23:45:21.811Z,1.40
2022-12-03T23:47:50.430Z,1.20
2022-12-03T23:50:19.270Z,1.20
2022-12-03T23:52:46.141Z,1.20
2022-12-03T23:55:13.114Z,1.30
2022-12-03T23:57:39.942Z,1.30
